createdAt,value
2018-05-07T00:03:05.220Z,101937.09
2018-05-07T00:06:12.310Z,101933.31
2018-05-07T00:09:18.216Z,101925.73
2018-05-07T00:12:23.182Z,101927.94
2018-05-07T00:15:29.707Z,101928.89
2018-05-07T00:18:35.152Z,101927.31
2018-05-07T00:21:40.556Z,101936.86
2018-05-07T00:24:47.712Z,101944.28
2018-05-07T00:27:53.537Z,101944.00
2018-05-07T00:30:58.812Z,101948.39
2018-05-07T00:34:04.988Z,101944.66
2018-05-07T00:37:10.276Z,101934.45
2018-05-07T00:40:15.486Z,101937.67
2018-05-07T00:43:20.979Z,101940.32
2018-05-07T00:46:27.871Z,101950.33
2018-05-07T00:49:33.896Z,101956.02
2018-05-07T00:52:40.122Z,101947.51
2018-05-07T00:55:46.302Z,101948.11
2018-05-07T00:58:52.140Z,101949.50
2018-05-07T01:01:57.540Z,101948.70
2018-05-07T01:05:02.611Z,101953.13
2018-05-07T01:08:08.732Z,101950.69
2018-05-07T01:11:14.344Z,101947.72
2018-05-07T01:14:20.481Z,101950.46
2018-05-07T01:17:25.349Z,101953.90
2018-05-07T01:20:30.275Z,101952.78
2018-05-07T01:23:35.944Z,101956.69
2018-05-07T01:26:42.174Z,101957.28
2018-05-07T01:29:47.806Z,101955.17
2018-05-07T01:32:53.061Z,101959.15
2018-05-07T01:35:58.271Z,101957.54
2018-05-07T01:39:03.434Z,101954.67
2018-05-07T01:42:10.516Z,101951.30
2018-05-07T01:45:17.562Z,101950.56
2018-05-07T01:48:24.015Z,101959.63
2018-05-07T01:51:29.889Z,101954.59
2018-05-07T01:54:36.013Z,101951.40
2018-05-07T01:57:41.860Z,101945.48
2018-05-07T02:00:47.068Z,101944.20
2018-05-07T02:03:52.311Z,101939.20
2018-05-07T02:06:59.273Z,101944.06
2018-05-07T02:10:05.065Z,101940.27
2018-05-07T02:13:10.908Z,101943.42
2018-05-07T02:16:17.434Z,101945.64
2018-05-07T02:19:23.561Z,101937.57
2018-05-07T02:22:29.186Z,101937.20
2018-05-07T02:25:36.217Z,101929.54
2018-05-07T02:28:42.346Z,101932.20
2018-05-07T02:31:47.613Z,101935.98
2018-05-07T02:34:53.946Z,101935.23
2018-05-07T02:38:00.266Z,101933.75
2018-05-07T02:41:05.470Z,101938.42
2018-05-07T02:44:11.715Z,101932.59
2018-05-07T02:47:17.917Z,101936.02
2018-05-07T02:50:23.122Z,101933.11
2018-05-07T02:53:29.836Z,101918.66
2018-05-07T02:56:35.122Z,101922.95
2018-05-07T02:59:40.736Z,101920.92
2018-05-07T03:02:47.811Z,101925.59
2018-05-07T03:05:54.905Z,101923.07
2018-05-07T03:09:00.726Z,101912.83
2018-05-07T03:12:06.627Z,101911.13
2018-05-07T03:15:12.917Z,101910.88
2018-05-07T03:18:18.760Z,101910.05
2018-05-07T03:21:25.822Z,101910.58
2018-05-07T03:24:32.045Z,101906.80
2018-05-07T03:27:37.961Z,101908.34
2018-05-07T03:30:44.086Z,101901.30
2018-05-07T03:33:50.211Z,101903.53
2018-05-07T03:36:56.001Z,101904.37
2018-05-07T03:40:01.221Z,101905.28
2018-05-07T03:43:06.584Z,101901.94
2018-05-07T03:46:11.981Z,101907.14
2018-05-07T03:49:18.096Z,101901.58
2018-05-07T03:52:26.136Z,101896.28
2018-05-07T03:55:32.359Z,101902.45
2018-05-07T03:58:37.866Z,101899.44
2018-05-07T04:01:44.030Z,101899.55
2018-05-07T04:04:50.154Z,101904.59
2018-05-07T04:07:56.960Z,101899.89
2018-05-07T04:11:03.197Z,101894.83
2018-05-07T04:14:09.305Z,101892.77
2018-05-07T04:21:08.210Z,101884.75
2018-05-07T04:24:13.124Z,101887.77
2018-05-07T04:27:18.836Z,101894.64
2018-05-07T04:30:25.578Z,101890.38
2018-05-07T04:33:31.184Z,101889.47
2018-05-07T04:36:37.105Z,101891.27
2018-05-07T04:39:42.027Z,101895.50
2018-05-07T04:42:47.220Z,101894.67
2018-05-07T04:45:52.425Z,101899.70
2018-05-07T04:48:57.631Z,101895.73
2018-05-07T04:52:02.545Z,101893.08
2018-05-07T04:55:07.779Z,101901.08
2018-05-07T04:58:13.178Z,101904.81
2018-05-07T05:01:19.110Z,101906.03
2018-05-07T05:04:24.316Z,101899.20
2018-05-07T05:07:31.548Z,101902.16
2018-05-07T05:10:37.686Z,101903.28
2018-05-07T05:13:44.801Z,101900.59
2018-05-07T05:16:50.618Z,101908.54
2018-05-07T05:19:55.815Z,101911.80
2018-05-07T05:23:02.826Z,101913.34
2018-05-07T05:26:09.893Z,101910.31
2018-05-07T05:29:16.036Z,101905.48
2018-05-07T05:32:23.093Z,101908.77
2018-05-07T05:35:29.224Z,101905.66
2018-05-07T05:38:36.057Z,101913.20
2018-05-07T05:41:41.841Z,101913.09
2018-05-07T05:44:48.069Z,101916.78
2018-05-07T05:47:54.404Z,101911.94
2018-05-07T05:51:00.245Z,101906.19
2018-05-07T05:54:07.354Z,101916.72
2018-05-07T05:57:13.433Z,101920.36
2018-05-07T06:00:19.596Z,101919.73
2018-05-07T06:03:25.749Z,101919.09
2018-05-07T06:06:31.367Z,101919.29
2018-05-07T06:09:37.478Z,101915.22
2018-05-07T06:12:44.313Z,101919.72
2018-05-07T06:15:50.617Z,101914.77
2018-05-07T06:18:57.166Z,101920.52
2018-05-07T06:22:03.471Z,101920.72
2018-05-07T06:25:10.518Z,101921.30
2018-05-07T06:28:16.656Z,101919.36
2018-05-07T06:31:22.592Z,101917.83
2018-05-07T06:34:28.753Z,101910.30
2018-05-07T06:37:35.675Z,101908.68
2018-05-07T06:40:41.320Z,101913.98
2018-05-07T06:43:46.525Z,101917.14
2018-05-07T06:46:51.725Z,101920.28
2018-05-07T06:49:57.135Z,101913.51
2018-05-07T06:53:04.189Z,101919.19
2018-05-07T06:56:11.205Z,101908.92
2018-05-07T06:59:17.397Z,101905.55
2018-05-07T07:02:23.238Z,101903.88
2018-05-07T07:05:28.617Z,101901.33
2018-05-07T07:08:35.843Z,101906.11
2018-05-07T07:11:42.875Z,101904.45
2018-05-07T07:14:49.109Z,101907.08
2018-05-07T07:17:55.839Z,101896.77
2018-05-07T07:21:01.971Z,101892.94
2018-05-07T07:24:07.207Z,101895.97
2018-05-07T07:27:13.123Z,101897.67
2018-05-07T07:30:19.065Z,101895.88
2018-05-07T07:33:25.188Z,101893.22
2018-05-07T07:36:31.517Z,101895.33
2018-05-07T07:39:38.062Z,101899.52
2018-05-07T07:42:44.214Z,101901.58
2018-05-07T07:45:50.445Z,101896.38
2018-05-07T07:48:56.557Z,101898.88
2018-05-07T07:52:02.727Z,101903.81
2018-05-07T07:55:08.528Z,101903.65
2018-05-07T07:58:13.749Z,101904.31
2018-05-07T08:01:18.678Z,101905.80
2018-05-07T08:04:25.917Z,101905.12
2018-05-07T08:07:31.168Z,101909.18
2018-05-07T08:10:36.393Z,101910.31
2018-05-07T08:13:42.498Z,101913.48
2018-05-07T08:16:49.529Z,101916.69
2018-05-07T08:19:56.681Z,101909.07
2018-05-07T08:23:03.436Z,101915.75
2018-05-07T08:26:09.265Z,101914.63
2018-05-07T08:29:14.479Z,101922.12
2018-05-07T08:32:19.693Z,101917.52
2018-05-07T08:35:24.897Z,101915.53
2018-05-07T08:38:31.964Z,101909.16
2018-05-07T08:41:38.073Z,101907.95
2018-05-07T08:44:45.105Z,101898.63
2018-05-07T08:47:51.273Z,101908.27
2018-05-07T08:50:59.347Z,101911.34
2018-05-07T08:54:05.189Z,101905.33
2018-05-07T08:57:11.300Z,101892.50
2018-05-07T09:00:18.247Z,101898.13
2018-05-07T09:03:24.332Z,101888.70
2018-05-07T09:06:30.484Z,101895.13
2018-05-07T09:09:37.300Z,101898.69
2018-05-07T09:12:42.503Z,101890.53
2018-05-07T09:15:49.542Z,101894.48
2018-05-07T09:18:55.155Z,101886.98
2018-05-07T09:22:00.367Z,101891.00
2018-05-07T09:25:06.089Z,101883.12
2018-05-07T09:28:12.211Z,101886.52
2018-05-07T09:31:18.141Z,101887.00
2018-05-07T09:34:23.357Z,101876.27
2018-05-07T09:37:28.574Z,101881.52
2018-05-07T09:40:35.621Z,101877.18
2018-05-07T09:43:41.472Z,101878.30
2018-05-07T09:46:47.582Z,101880.43
2018-05-07T09:49:53.731Z,101872.67
2018-05-07T09:52:58.942Z,101862.70
2018-05-07T09:56:05.066Z,101867.86
2018-05-07T09:59:11.202Z,101862.99
2018-05-07T10:02:17.193Z,101861.58
2018-05-07T10:05:23.161Z,101856.31
2018-05-07T10:08:29.196Z,101856.65
2018-05-07T10:11:36.035Z,101844.13
2018-05-07T10:14:43.088Z,101848.54
2018-05-07T10:17:49.208Z,101840.18
2018-05-07T10:20:55.352Z,101842.39
2018-05-07T10:24:01.479Z,101832.15
2018-05-07T10:27:07.320Z,101820.84
2018-05-07T10:30:12.545Z,101825.63
2018-05-07T10:33:17.754Z,101819.45
2018-05-07T10:36:24.510Z,101822.42
2018-05-07T10:39:30.140Z,101815.58
2018-05-07T10:42:35.401Z,101813.98
2018-05-07T10:45:40.776Z,101815.41
2018-05-07T10:48:45.989Z,101817.24
2018-05-07T10:51:51.197Z,101815.83
2018-05-07T10:54:57.334Z,101817.84
2018-05-07T10:58:04.401Z,101816.72
2018-05-07T11:01:10.533Z,101812.33
2018-05-07T11:04:16.670Z,101812.69
2018-05-07T11:07:23.768Z,101807.58
2018-05-07T11:10:29.929Z,101807.52
2018-05-07T11:13:35.945Z,101801.41
2018-05-07T11:16:41.897Z,101797.14
2018-05-07T11:19:47.893Z,101788.36
2018-05-07T11:22:54.878Z,101785.24
2018-05-07T11:26:01.533Z,101779.96
2018-05-07T11:29:06.757Z,101774.38
2018-05-07T11:32:13.161Z,101771.89
2018-05-07T11:35:18.385Z,101775.69
2018-05-07T11:38:23.732Z,101771.36
2018-05-07T11:41:28.962Z,101762.90
2018-05-07T11:44:35.093Z,101766.81
2018-05-07T11:47:41.244Z,101758.92
2018-05-07T11:50:47.421Z,101753.58
2018-05-07T11:53:53.525Z,101756.81
2018-05-07T11:56:59.141Z,101756.09
2018-05-07T12:00:04.649Z,101757.03
2018-05-07T12:03:10.928Z,101749.70
2018-05-07T12:06:16.200Z,101748.69
2018-05-07T12:09:22.379Z,101748.83
2018-05-07T12:12:28.602Z,101741.18
2018-05-07T12:15:36.462Z,101744.47
2018-05-07T12:18:42.705Z,101736.33
2018-05-07T12:21:48.621Z,101735.62
2018-05-07T12:24:55.649Z,101732.73
2018-05-07T12:28:01.778Z,101723.05
2018-05-07T12:31:07.082Z,101727.88
2018-05-07T12:34:12.410Z,101726.07
2018-05-07T12:37:17.624Z,101723.46
2018-05-07T12:40:22.842Z,101717.38
2018-05-07T12:43:27.819Z,101715.52
2018-05-07T12:46:33.029Z,101715.43
2018-05-07T12:49:38.277Z,101719.45
2018-05-07T12:52:44.365Z,101712.11
2018-05-07T12:55:50.383Z,101705.38
2018-05-07T12:58:56.448Z,101703.30
2018-05-07T13:02:02.296Z,101702.55
2018-05-07T13:05:08.285Z,101694.27
2018-05-07T13:08:14.159Z,101696.59
2018-05-07T13:11:21.287Z,101689.03
2018-05-07T13:14:27.420Z,101686.63
2018-05-07T13:17:33.531Z,101685.72
2018-05-07T13:20:39.698Z,101677.19
2018-05-07T13:23:45.881Z,101672.38
2018-05-07T13:26:51.913Z,101667.13
2018-05-07T13:29:58.953Z,101665.25
2018-05-07T13:33:04.840Z,101661.74
2018-05-07T13:36:10.078Z,101655.84
2018-05-07T13:39:15.329Z,101656.25
2018-05-07T13:42:20.523Z,101653.83
2018-05-07T13:45:25.753Z,101652.59
2018-05-07T13:48:32.817Z,101639.77
2018-05-07T13:51:39.861Z,101634.60
2018-05-07T13:54:46.009Z,101629.47
2018-05-07T13:57:52.865Z,101634.06
2018-05-07T14:00:59.020Z,101632.12
2018-05-07T14:04:04.969Z,101634.81
2018-05-07T14:07:10.195Z,101622.30
2018-05-07T14:10:15.425Z,101619.63
2018-05-07T14:13:21.431Z,101622.11
2018-05-07T14:16:28.345Z,101615.23
2018-05-07T14:19:35.366Z,101613.17
2018-05-07T14:22:42.392Z,101603.13
2018-05-07T14:25:48.020Z,101601.83
2018-05-07T14:28:53.218Z,101599.51
2018-05-07T14:31:58.431Z,101595.78
2018-05-07T14:35:03.433Z,101598.42
2018-05-07T14:38:08.670Z,101595.61
2018-05-07T14:41:13.869Z,101589.67
2018-05-07T14:44:20.889Z,101591.83
2018-05-07T14:47:27.025Z,101585.27
2018-05-07T14:50:32.969Z,101587.81
2018-05-07T14:53:40.055Z,101581.52
2018-05-07T14:56:47.847Z,101581.61
2018-05-07T14:59:54.265Z,101580.97
2018-05-07T15:03:01.311Z,101575.52
2018-05-07T15:06:08.334Z,101574.42
2018-05-07T15:09:14.457Z,101573.11
2018-05-07T15:12:19.673Z,101568.63
2018-05-07T15:15:24.550Z,101563.50
2018-05-07T15:18:29.762Z,101558.27
2018-05-07T15:21:34.966Z,101562.47
2018-05-07T15:24:50.794Z,101559.77
2018-05-07T15:27:56.842Z,101557.83
2018-05-07T15:31:02.062Z,101556.73
2018-05-07T15:34:07.462Z,101553.55
2018-05-07T15:37:12.685Z,101556.45
2018-05-07T15:40:17.653Z,101549.89
2018-05-07T15:43:23.487Z,101546.59
2018-05-07T15:46:28.705Z,101545.48
2018-05-07T15:49:33.915Z,101539.90
2018-05-07T15:52:40.035Z,101530.03
2018-05-07T15:55:47.161Z,101535.39
2018-05-07T15:58:52.849Z,101538.72
2018-05-07T16:01:58.993Z,101529.07
2018-05-07T16:05:03.899Z,101531.98
2018-05-07T16:08:09.828Z,101529.91
2018-05-07T16:11:15.033Z,101529.78
2018-05-07T16:14:21.149Z,101517.89
2018-05-07T16:17:26.137Z,101521.28
2018-05-07T16:20:31.390Z,101522.23
2018-05-07T16:23:37.531Z,101518.02
2018-05-07T16:26:43.986Z,101514.44
2018-05-07T16:29:50.146Z,101511.03
2018-05-07T16:32:56.149Z,101507.57
2018-05-07T16:36:02.076Z,101512.88
2018-05-07T16:39:06.709Z,101512.20
2018-05-07T16:42:13.039Z,101510.60
2018-05-07T16:45:18.668Z,101507.23
2018-05-07T16:48:25.954Z,101509.14
2018-05-07T16:51:33.077Z,101504.08
2018-05-07T16:54:39.234Z,101501.13
2018-05-07T16:57:46.057Z,101500.89
2018-05-07T17:00:53.166Z,101499.86
2018-05-07T17:03:59.289Z,101493.66
2018-05-07T17:07:05.441Z,101491.42
2018-05-07T17:10:11.718Z,101490.14
2018-05-07T17:13:16.940Z,101487.48
2018-05-07T17:16:22.154Z,101490.05
2018-05-07T17:19:27.133Z,101488.69
2018-05-07T17:22:32.772Z,101484.55
2018-05-07T17:25:37.708Z,101490.55
2018-05-07T17:28:43.627Z,101493.06
2018-05-07T17:31:49.849Z,101483.44
2018-05-07T17:34:55.677Z,101472.84
2018-05-07T17:38:01.832Z,101480.33
2018-05-07T17:41:07.805Z,101476.81
2018-05-07T17:44:24.989Z,101483.20
2018-05-07T17:47:41.933Z,101484.04
2018-05-07T17:50:46.869Z,101475.86
2018-05-07T17:53:53.709Z,101477.08
2018-05-07T17:56:59.516Z,101474.84
2018-05-07T18:00:04.236Z,101468.63
2018-05-07T18:03:09.609Z,101473.75
2018-05-07T18:06:14.809Z,101468.48
2018-05-07T18:09:20.481Z,101466.59
2018-05-07T18:12:26.643Z,101466.47
2018-05-07T18:15:33.587Z,101461.05
2018-05-07T18:18:40.625Z,101460.83
2018-05-07T18:21:47.771Z,101455.78
2018-05-07T18:24:54.502Z,101451.27
2018-05-07T18:28:00.631Z,101450.19
2018-05-07T18:31:05.842Z,101453.34
2018-05-07T18:34:11.037Z,101450.72
2018-05-07T18:37:16.308Z,101441.69
2018-05-07T18:40:21.488Z,101439.65
2018-05-07T18:43:26.700Z,101435.66
2018-05-07T18:46:31.906Z,101441.16
2018-05-07T18:49:37.129Z,101437.81
2018-05-07T18:52:42.330Z,101442.78
2018-05-07T18:55:47.550Z,101443.39
2018-05-07T18:58:54.361Z,101446.22
2018-05-07T19:01:59.341Z,101450.79
2018-05-07T19:05:05.381Z,101455.71
2018-05-07T19:08:10.810Z,101446.78
2018-05-07T19:11:16.024Z,101450.45
2018-05-07T19:14:22.212Z,101450.66
2018-05-07T19:17:28.469Z,101456.81
2018-05-07T19:20:33.690Z,101453.97
2018-05-07T19:23:39.998Z,101445.94
2018-05-07T19:26:45.205Z,101442.59
2018-05-07T19:29:50.515Z,101445.72
2018-05-07T19:32:55.898Z,101453.20
2018-05-07T19:36:01.665Z,101454.17
2018-05-07T19:39:08.990Z,101449.95
2018-05-07T19:42:15.117Z,101446.09
2018-05-07T19:45:22.037Z,101441.05
2018-05-07T19:48:28.174Z,101438.56
2018-05-07T19:51:33.552Z,101434.77
2018-05-07T19:54:38.775Z,101439.99
2018-05-07T19:57:46.109Z,101442.70
2018-05-07T20:00:52.948Z,101434.13
2018-05-07T20:03:59.087Z,101433.27
2018-05-07T20:07:06.080Z,101434.22
2018-05-07T20:10:13.145Z,101436.42
2018-05-07T20:13:18.991Z,101438.72
2018-05-07T20:16:25.125Z,101439.67
2018-05-07T20:19:30.055Z,101443.05
2018-05-07T20:22:35.265Z,101447.89
2018-05-07T20:25:40.239Z,101436.66
2018-05-07T20:28:45.448Z,101435.43
2018-05-07T20:31:51.185Z,101427.66
2018-05-07T20:34:57.352Z,101432.05
2018-05-07T20:38:02.763Z,101429.04
2018-05-07T20:41:08.694Z,101427.38
2018-05-07T20:44:14.519Z,101427.80
2018-05-07T20:47:21.548Z,101424.31
2018-05-07T20:50:27.652Z,101429.91
2018-05-07T20:53:33.597Z,101432.53
2018-05-07T20:56:39.701Z,101426.09
2018-05-07T20:59:45.371Z,101424.64
2018-05-07T21:02:50.584Z,101420.72
2018-05-07T21:05:56.210Z,101420.15
2018-05-07T21:09:01.429Z,101417.48
2018-05-07T21:12:06.365Z,101419.22
2018-05-07T21:15:11.768Z,101422.33
2018-05-07T21:18:17.882Z,101425.17
2018-05-07T21:21:24.705Z,101424.63
2018-05-07T21:24:30.563Z,101429.37
2018-05-07T21:27:35.765Z,101425.83
2018-05-07T21:30:40.978Z,101424.20
2018-05-07T21:33:47.101Z,101417.12
2018-05-07T21:36:52.725Z,101413.14
2018-05-07T21:39:57.703Z,101423.00
2018-05-07T21:43:02.926Z,101412.15
2018-05-07T21:46:07.924Z,101417.09
2018-05-07T21:49:13.770Z,101415.23
2018-05-07T21:52:18.985Z,101421.25
2018-05-07T21:55:24.222Z,101421.52
2018-05-07T21:58:29.464Z,101421.71
2018-05-07T22:01:36.405Z,101425.91
2018-05-07T22:04:43.541Z,101425.69
2018-05-07T22:07:50.052Z,101422.16
2018-05-07T22:10:54.956Z,101422.39
2018-05-07T22:14:01.129Z,101413.05
2018-05-07T22:17:06.977Z,101418.36
2018-05-07T22:20:11.893Z,101415.72
2018-05-07T22:23:17.610Z,101415.70
2018-05-07T22:26:22.814Z,101410.43
2018-05-07T22:29:28.925Z,101410.60
2018-05-07T22:32:35.958Z,101411.38
2018-05-07T22:35:41.834Z,101408.40
2018-05-07T22:38:47.073Z,101403.68
2018-05-07T22:41:52.324Z,101409.66
2018-05-07T22:44:58.382Z,101404.40
2018-05-07T22:48:04.120Z,101406.61
2018-05-07T22:51:09.365Z,101406.53
2018-05-07T22:54:15.209Z,101405.33
2018-05-07T22:57:21.050Z,101406.92
2018-05-07T23:00:27.892Z,101405.05
2018-05-07T23:03:33.455Z,101400.18
2018-05-07T23:06:38.953Z,101396.77
2018-05-07T23:09:44.789Z,101401.36
2018-05-07T23:12:50.930Z,101400.90
2018-05-07T23:15:57.893Z,101399.66
2018-05-07T23:19:04.016Z,101398.73
2018-05-07T23:22:10.131Z,101398.49
2018-05-07T23:25:17.006Z,101395.16
2018-05-07T23:28:22.545Z,101389.78
2018-05-07T23:31:27.790Z,101389.70
2018-05-07T23:34:33.013Z,101385.61
2018-05-07T23:37:40.181Z,101380.61
2018-05-07T23:40:46.064Z,101381.32
2018-05-07T23:43:51.996Z,101382.81
2018-05-07T23:46:57.351Z,101376.98
2018-05-07T23:50:04.269Z,101381.14
2018-05-07T23:53:10.102Z,101376.97
2018-05-07T23:56:16.218Z,101371.89
2018-05-07T23:59:22.921Z,101379.53
